sensor_id;sensor_type;location;lat;lon;timestamp;temperature;humidity
40848;DHT22;26570;50.962;5.340;2022-08-01T00:01:40;21.90;99.90
40848;DHT22;26570;50.962;5.340;2022-08-01T00:04:26;21.90;99.90
40848;DHT22;26570;50.962;5.340;2022-08-01T00:07:11;21.90;99.90
40848;DHT22;26570;50.962;5.340;2022-08-01T00:09:56;21.90;99.90
40848;DHT22;26570;50.962;5.340;2022-08-01T00:12:41;22.00;99.90
40848;DHT22;26570;50.962;5.340;2022-08-01T00:15:27;22.00;99.90
40848;DHT22;26570;50.962;5.340;2022-08-01T00:18:11;22.10;99.90
40848;DHT22;26570;50.962;5.340;2022-08-01T00:20:57;21.90;99.90
40848;DHT22;26570;50.962;5.340;2022-08-01T00:23:42;21.80;99.90
40848;DHT22;26570;50.962;5.340;2022-08-01T00:26:28;21.80;99.90
40848;DHT22;26570;50.962;5.340;2022-08-01T00:29:13;21.80;99.90
40848;DHT22;26570;50.962;5.340;2022-08-01T00:31:57;21.80;99.90
40848;DHT22;26570;50.962;5.340;2022-08-01T00:34:42;21.70;99.90
40848;DHT22;26570;50.962;5.340;2022-08-01T00:37:27;21.70;99.90
40848;DHT22;26570;50.962;5.340;2022-08-01T00:40:12;21.60;99.90
40848;DHT22;26570;50.962;5.340;2022-08-01T00:42:56;21.60;99.90
40848;DHT22;26570;50.962;5.340;2022-08-01T00:45:42;21.70;99.90
40848;DHT22;26570;50.962;5.340;2022-08-01T00:48:28;21.70;99.90
40848;DHT22;26570;50.962;5.340;2022-08-01T00:51:13;21.80;99.90
40848;DHT22;26570;50.962;5.340;2022-08-01T00:53:58;21.70;99.90
40848;DHT22;26570;50.962;5.340;2022-08-01T00:56:43;21.70;99.90
40848;DHT22;26570;50.962;5.340;2022-08-01T00:59:28;21.70;99.90
40848;DHT22;26570;50.962;5.340;2022-08-01T01:02:13;21.50;99.90
40848;DHT22;26570;50.962;5.340;2022-08-01T01:04:58;21.60;99.90
40848;DHT22;26570;50.962;5.340;2022-08-01T01:10:54;21.50;99.90
40848;DHT22;26570;50.962;5.340;2022-08-01T01:13:48;21.50;99.90
40848;DHT22;26570;50.962;5.340;2022-08-01T01:16:33;21.50;99.90
40848;DHT22;26570;50.962;5.340;2022-08-01T01:19:24;21.70;99.90
40848;DHT22;26570;50.962;5.340;2022-08-01T01:22:22;21.60;99.90
40848;DHT22;26570;50.962;5.340;2022-08-01T01:31:48;21.60;99.90
40848;DHT22;26570;50.962;5.340;2022-08-01T01:34:37;21.60;99.90
40848;DHT22;26570;50.962;5.340;2022-08-01T01:37:25;21.60;99.90
40848;DHT22;26570;50.962;5.340;2022-08-01T01:40:11;21.70;99.90
40848;DHT22;26570;50.962;5.340;2022-08-01T01:42:57;21.50;99.90
40848;DHT22;26570;50.962;5.340;2022-08-01T01:45:45;21.70;99.90
40848;DHT22;26570;50.962;5.340;2022-08-01T01:48:31;21.60;99.90
40848;DHT22;26570;50.962;5.340;2022-08-01T01:51:18;21.50;99.90
40848;DHT22;26570;50.962;5.340;2022-08-01T01:54:08;21.50;99.90
40848;DHT22;26570;50.962;5.340;2022-08-01T01:56:56;21.60;99.90
40848;DHT22;26570;50.962;5.340;2022-08-01T01:59:44;21.50;99.90
40848;DHT22;26570;50.962;5.340;2022-08-01T02:02:30;21.60;99.90
40848;DHT22;26570;50.962;5.340;2022-08-01T02:05:15;21.50;99.90
40848;DHT22;26570;50.962;5.340;2022-08-01T02:08:01;21.60;99.90
40848;DHT22;26570;50.962;5.340;2022-08-01T02:10:47;21.50;99.90
40848;DHT22;26570;50.962;5.340;2022-08-01T02:13:58;21.50;99.90
40848;DHT22;26570;50.962;5.340;2022-08-01T02:16:47;21.50;99.90
40848;DHT22;26570;50.962;5.340;2022-08-01T02:19:33;21.50;99.90
40848;DHT22;26570;50.962;5.340;2022-08-01T02:22:33;21.50;99.90
40848;DHT22;26570;50.962;5.340;2022-08-01T02:25:31;21.40;99.90
40848;DHT22;26570;50.962;5.340;2022-08-01T02:28:21;21.40;99.90
40848;DHT22;26570;50.962;5.340;2022-08-01T02:31:13;21.40;99.90
40848;DHT22;26570;50.962;5.340;2022-08-01T02:34:06;21.50;99.90
40848;DHT22;26570;50.962;5.340;2022-08-01T02:36:54;21.50;99.90
40848;DHT22;26570;50.962;5.340;2022-08-01T02:39:41;21.40;99.90
40848;DHT22;26570;50.962;5.340;2022-08-01T02:42:27;21.40;99.90
40848;DHT22;26570;50.962;5.340;2022-08-01T02:45:13;21.50;99.90
40848;DHT22;26570;50.962;5.340;2022-08-01T02:48:05;21.50;99.90
40848;DHT22;26570;50.962;5.340;2022-08-01T02:50:58;21.50;99.90
40848;DHT22;26570;50.962;5.340;2022-08-01T02:53:45;21.50;99.90
40848;DHT22;26570;50.962;5.340;2022-08-01T02:56:32;21.50;99.90
40848;DHT22;26570;50.962;5.340;2022-08-01T02:59:22;21.40;99.90
40848;DHT22;26570;50.962;5.340;2022-08-01T03:02:11;21.40;99.90
40848;DHT22;26570;50.962;5.340;2022-08-01T03:04:58;21.30;99.90
40848;DHT22;26570;50.962;5.340;2022-08-01T03:07:45;21.40;99.90
40848;DHT22;26570;50.962;5.340;2022-08-01T03:10:31;21.50;99.90
40848;DHT22;26570;50.962;5.340;2022-08-01T03:13:18;21.50;99.90
40848;DHT22;26570;50.962;5.340;2022-08-01T03:16:05;21.50;99.90
40848;DHT22;26570;50.962;5.340;2022-08-01T03:18:53;21.50;99.90
40848;DHT22;26570;50.962;5.340;2022-08-01T03:21:41;21.50;99.90
40848;DHT22;26570;50.962;5.340;2022-08-01T03:24:29;21.50;99.90
40848;DHT22;26570;50.962;5.340;2022-08-01T03:27:16;21.50;99.90
40848;DHT22;26570;50.962;5.340;2022-08-01T03:30:04;21.60;99.90
40848;DHT22;26570;50.962;5.340;2022-08-01T03:32:49;21.60;99.90
40848;DHT22;26570;50.962;5.340;2022-08-01T03:35:39;21.60;99.90
40848;DHT22;26570;50.962;5.340;2022-08-01T03:38:31;21.50;99.90
40848;DHT22;26570;50.962;5.340;2022-08-01T03:41:21;21.40;99.90
40848;DHT22;26570;50.962;5.340;2022-08-01T03:44:15;21.40;99.90
40848;DHT22;26570;50.962;5.340;2022-08-01T03:47:04;21.40;99.90
40848;DHT22;26570;50.962;5.340;2022-08-01T03:49:50;21.30;99.90
40848;DHT22;26570;50.962;5.340;2022-08-01T03:52:38;21.40;99.90
40848;DHT22;26570;50.962;5.340;2022-08-01T03:55:25;21.50;99.90
40848;DHT22;26570;50.962;5.340;2022-08-01T03:58:11;21.50;99.90
40848;DHT22;26570;50.962;5.340;2022-08-01T04:00:57;21.40;99.90
40848;DHT22;26570;50.962;5.340;2022-08-01T04:03:44;21.60;99.90
40848;DHT22;26570;50.962;5.340;2022-08-01T04:06:29;21.40;99.90
40848;DHT22;26570;50.962;5.340;2022-08-01T04:09:14;21.50;99.90
40848;DHT22;26570;50.962;5.340;2022-08-01T04:12:00;21.40;99.90
40848;DHT22;26570;50.962;5.340;2022-08-01T04:14:47;21.40;99.90
40848;DHT22;26570;50.962;5.340;2022-08-01T04:17:33;21.30;99.90
40848;DHT22;26570;50.962;5.340;2022-08-01T04:20:18;21.30;99.90
40848;DHT22;26570;50.962;5.340;2022-08-01T04:23:04;21.30;99.90
40848;DHT22;26570;50.962;5.340;2022-08-01T04:25:50;21.30;99.90
40848;DHT22;26570;50.962;5.340;2022-08-01T04:28:37;21.40;99.90
40848;DHT22;26570;50.962;5.340;2022-08-01T04:31:24;21.40;99.90
40848;DHT22;26570;50.962;5.340;2022-08-01T04:34:13;21.50;99.90
40848;DHT22;26570;50.962;5.340;2022-08-01T04:36:59;21.40;99.90
40848;DHT22;26570;50.962;5.340;2022-08-01T04:39:46;21.30;99.90
40848;DHT22;26570;50.962;5.340;2022-08-01T04:42:33;21.30;99.90
40848;DHT22;26570;50.962;5.340;2022-08-01T04:45:18;21.40;99.90
40848;DHT22;26570;50.962;5.340;2022-08-01T04:48:05;21.20;99.90
40848;DHT22;26570;50.962;5.340;2022-08-01T04:50:53;21.30;99.90
40848;DHT22;26570;50.962;5.340;2022-08-01T04:53:39;21.40;99.90
40848;DHT22;26570;50.962;5.340;2022-08-01T04:56:24;21.40;99.90
40848;DHT22;26570;50.962;5.340;2022-08-01T04:59:09;21.40;99.90
40848;DHT22;26570;50.962;5.340;2022-08-01T05:02:16;21.60;99.90
40848;DHT22;26570;50.962;5.340;2022-08-01T05:05:03;21.60;99.90
40848;DHT22;26570;50.962;5.340;2022-08-01T05:07:51;21.40;99.90
40848;DHT22;26570;50.962;5.340;2022-08-01T05:10:36;21.60;99.90
40848;DHT22;26570;50.962;5.340;2022-08-01T05:13:22;21.50;99.90
40848;DHT22;26570;50.962;5.340;2022-08-01T05:16:07;21.40;99.90
40848;DHT22;26570;50.962;5.340;2022-08-01T05:18:52;21.30;99.90
40848;DHT22;26570;50.962;5.340;2022-08-01T05:21:38;21.30;99.90
40848;DHT22;26570;50.962;5.340;2022-08-01T05:24:24;21.30;99.90
40848;DHT22;26570;50.962;5.340;2022-08-01T05:27:09;21.40;99.90
40848;DHT22;26570;50.962;5.340;2022-08-01T05:29:53;21.30;99.90
40848;DHT22;26570;50.962;5.340;2022-08-01T05:32:38;21.20;99.90
40848;DHT22;26570;50.962;5.340;2022-08-01T05:35:23;21.20;99.90
40848;DHT22;26570;50.962;5.340;2022-08-01T05:38:09;21.30;99.90
40848;DHT22;26570;50.962;5.340;2022-08-01T05:40:53;21.30;99.90
40848;DHT22;26570;50.962;5.340;2022-08-01T05:43:38;21.10;99.90
40848;DHT22;26570;50.962;5.340;2022-08-01T05:46:23;20.90;99.90
40848;DHT22;26570;50.962;5.340;2022-08-01T05:49:08;20.80;99.90
40848;DHT22;26570;50.962;5.340;2022-08-01T05:51:52;20.90;99.90
40848;DHT22;26570;50.962;5.340;2022-08-01T05:54:38;21.00;99.90
40848;DHT22;26570;50.962;5.340;2022-08-01T05:57:22;21.10;99.90
40848;DHT22;26570;50.962;5.340;2022-08-01T06:00:08;21.10;99.90
40848;DHT22;26570;50.962;5.340;2022-08-01T06:02:53;21.20;99.90
40848;DHT22;26570;50.962;5.340;2022-08-01T06:05:37;21.20;99.90
40848;DHT22;26570;50.962;5.340;2022-08-01T06:08:22;21.30;99.90
40848;DHT22;26570;50.962;5.340;2022-08-01T06:11:07;21.40;99.90
40848;DHT22;26570;50.962;5.340;2022-08-01T06:13:52;21.30;99.90
40848;DHT22;26570;50.962;5.340;2022-08-01T06:16:37;21.50;99.90
40848;DHT22;26570;50.962;5.340;2022-08-01T06:19:21;21.40;99.90
40848;DHT22;26570;50.962;5.340;2022-08-01T06:22:06;21.40;99.90
40848;DHT22;26570;50.962;5.340;2022-08-01T06:24:50;21.50;99.90
40848;DHT22;26570;50.962;5.340;2022-08-01T06:27:35;21.50;99.90
40848;DHT22;26570;50.962;5.340;2022-08-01T06:30:20;21.50;99.90
40848;DHT22;26570;50.962;5.340;2022-08-01T06:33:05;21.60;99.90
40848;DHT22;26570;50.962;5.340;2022-08-01T06:35:50;21.90;99.90
40848;DHT22;26570;50.962;5.340;2022-08-01T06:38:34;21.90;99.90
40848;DHT22;26570;50.962;5.340;2022-08-01T06:41:19;21.90;99.90
40848;DHT22;26570;50.962;5.340;2022-08-01T06:44:04;21.90;99.90
40848;DHT22;26570;50.962;5.340;2022-08-01T06:46:49;22.10;99.90
40848;DHT22;26570;50.962;5.340;2022-08-01T06:49:35;22.20;99.90
40848;DHT22;26570;50.962;5.340;2022-08-01T06:52:20;22.40;99.90
40848;DHT22;26570;50.962;5.340;2022-08-01T06:55:04;22.40;99.90
40848;DHT22;26570;50.962;5.340;2022-08-01T06:57:51;22.60;99.90
40848;DHT22;26570;50.962;5.340;2022-08-01T07:00:36;22.90;99.90
40848;DHT22;26570;50.962;5.340;2022-08-01T07:03:21;23.00;99.90
40848;DHT22;26570;50.962;5.340;2022-08-01T07:06:05;23.00;99.90
40848;DHT22;26570;50.962;5.340;2022-08-01T07:08:51;23.00;99.90
40848;DHT22;26570;50.962;5.340;2022-08-01T07:11:36;23.10;99.90
40848;DHT22;26570;50.962;5.340;2022-08-01T07:14:22;23.20;99.90
40848;DHT22;26570;50.962;5.340;2022-08-01T07:17:07;23.60;99.90
40848;DHT22;26570;50.962;5.340;2022-08-01T07:19:52;24.00;99.90
40848;DHT22;26570;50.962;5.340;2022-08-01T07:22:38;24.40;99.90
40848;DHT22;26570;50.962;5.340;2022-08-01T07:25:23;24.80;99.90
40848;DHT22;26570;50.962;5.340;2022-08-01T07:28:09;25.20;99.90
40848;DHT22;26570;50.962;5.340;2022-08-01T07:30:53;25.70;99.90
40848;DHT22;26570;50.962;5.340;2022-08-01T07:33:38;26.50;99.90
40848;DHT22;26570;50.962;5.340;2022-08-01T07:36:23;27.60;99.90
40848;DHT22;26570;50.962;5.340;2022-08-01T07:39:08;27.80;99.90
40848;DHT22;26570;50.962;5.340;2022-08-01T07:41:53;27.60;99.90
40848;DHT22;26570;50.962;5.340;2022-08-01T07:44:40;26.90;99.90
40848;DHT22;26570;50.962;5.340;2022-08-01T07:47:26;26.30;99.90
40848;DHT22;26570;50.962;5.340;2022-08-01T07:50:11;25.90;99.90
40848;DHT22;26570;50.962;5.340;2022-08-01T07:52:57;25.60;99.90
40848;DHT22;26570;50.962;5.340;2022-08-01T07:55:42;25.70;99.90
40848;DHT22;26570;50.962;5.340;2022-08-01T07:58:27;25.80;99.90
40848;DHT22;26570;50.962;5.340;2022-08-01T08:01:11;25.80;99.90
40848;DHT22;26570;50.962;5.340;2022-08-01T08:03:58;25.80;99.90
40848;DHT22;26570;50.962;5.340;2022-08-01T08:06:43;25.40;99.90
40848;DHT22;26570;50.962;5.340;2022-08-01T08:09:31;25.30;99.90
40848;DHT22;26570;50.962;5.340;2022-08-01T08:12:16;25.50;99.90
40848;DHT22;26570;50.962;5.340;2022-08-01T08:15:01;25.60;99.90
40848;DHT22;26570;50.962;5.340;2022-08-01T08:17:45;25.70;99.90
40848;DHT22;26570;50.962;5.340;2022-08-01T08:20:30;25.80;99.90
40848;DHT22;26570;50.962;5.340;2022-08-01T08:23:15;26.20;99.90
40848;DHT22;26570;50.962;5.340;2022-08-01T08:26:19;26.60;99.90
40848;DHT22;26570;50.962;5.340;2022-08-01T08:29:04;26.50;99.90
40848;DHT22;26570;50.962;5.340;2022-08-01T08:31:49;26.30;99.90
40848;DHT22;26570;50.962;5.340;2022-08-01T08:34:35;26.20;99.90
40848;DHT22;26570;50.962;5.340;2022-08-01T08:37:19;26.20;99.90
40848;DHT22;26570;50.962;5.340;2022-08-01T08:40:05;26.60;99.90
40848;DHT22;26570;50.962;5.340;2022-08-01T08:42:50;26.80;99.90
40848;DHT22;26570;50.962;5.340;2022-08-01T08:45:35;27.10;99.90
40848;DHT22;26570;50.962;5.340;2022-08-01T08:48:20;27.70;99.70
40848;DHT22;26570;50.962;5.340;2022-08-01T08:51:08;27.80;98.20
40848;DHT22;26570;50.962;5.340;2022-08-01T08:53:56;28.50;98.40
40848;DHT22;26570;50.962;5.340;2022-08-01T08:56:42;29.00;97.40
40848;DHT22;26570;50.962;5.340;2022-08-01T08:59:28;29.40;96.10
40848;DHT22;26570;50.962;5.340;2022-08-01T09:02:13;29.20;95.90
40848;DHT22;26570;50.962;5.340;2022-08-01T09:04:58;29.00;95.20
40848;DHT22;26570;50.962;5.340;2022-08-01T09:07:43;28.70;94.80
40848;DHT22;26570;50.962;5.340;2022-08-01T09:10:28;28.60;95.60
40848;DHT22;26570;50.962;5.340;2022-08-01T09:13:14;28.50;94.80
40848;DHT22;26570;50.962;5.340;2022-08-01T09:16:00;28.40;94.50
40848;DHT22;26570;50.962;5.340;2022-08-01T09:18:44;28.40;94.50
40848;DHT22;26570;50.962;5.340;2022-08-01T09:21:29;28.20;94.80
40848;DHT22;26570;50.962;5.340;2022-08-01T09:24:15;28.20;94.70
40848;DHT22;26570;50.962;5.340;2022-08-01T09:27:00;28.30;94.80
40848;DHT22;26570;50.962;5.340;2022-08-01T09:29:45;27.60;96.00
40848;DHT22;26570;50.962;5.340;2022-08-01T09:32:30;27.20;97.00
40848;DHT22;26570;50.962;5.340;2022-08-01T09:35:33;27.00;97.60
40848;DHT22;26570;50.962;5.340;2022-08-01T09:38:21;27.10;97.80
40848;DHT22;26570;50.962;5.340;2022-08-01T09:41:06;27.40;96.70
40848;DHT22;26570;50.962;5.340;2022-08-01T09:43:52;27.30;97.70
40848;DHT22;26570;50.962;5.340;2022-08-01T09:46:52;27.50;96.80
40848;DHT22;26570;50.962;5.340;2022-08-01T09:49:38;27.80;96.40
40848;DHT22;26570;50.962;5.340;2022-08-01T09:52:27;28.00;96.20
40848;DHT22;26570;50.962;5.340;2022-08-01T09:55:11;28.40;96.00
40848;DHT22;26570;50.962;5.340;2022-08-01T09:57:56;28.50;95.10
40848;DHT22;26570;50.962;5.340;2022-08-01T10:01:00;28.40;95.10
40848;DHT22;26570;50.962;5.340;2022-08-01T10:03:44;28.50;95.60
40848;DHT22;26570;50.962;5.340;2022-08-01T10:06:29;28.70;95.30
40848;DHT22;26570;50.962;5.340;2022-08-01T10:09:14;29.10;94.40
40848;DHT22;26570;50.962;5.340;2022-08-01T10:11:59;29.40;93.30
40848;DHT22;26570;50.962;5.340;2022-08-01T10:14:46;29.00;92.50
40848;DHT22;26570;50.962;5.340;2022-08-01T10:17:32;28.70;93.70
40848;DHT22;26570;50.962;5.340;2022-08-01T10:20:20;28.60;93.80
40848;DHT22;26570;50.962;5.340;2022-08-01T10:23:05;28.50;94.00
40848;DHT22;26570;50.962;5.340;2022-08-01T10:25:51;28.50;94.10
40848;DHT22;26570;50.962;5.340;2022-08-01T10:28:38;28.40;94.00
40848;DHT22;26570;50.962;5.340;2022-08-01T10:31:24;28.50;93.90
40848;DHT22;26570;50.962;5.340;2022-08-01T10:34:08;28.70;93.70
40848;DHT22;26570;50.962;5.340;2022-08-01T10:36:54;29.00;93.40
40848;DHT22;26570;50.962;5.340;2022-08-01T10:39:39;29.30;92.60
40848;DHT22;26570;50.962;5.340;2022-08-01T10:42:23;29.30;92.50
40848;DHT22;26570;50.962;5.340;2022-08-01T10:45:14;29.30;92.50
40848;DHT22;26570;50.962;5.340;2022-08-01T10:50:48;29.10;92.80
40848;DHT22;26570;50.962;5.340;2022-08-01T10:53:33;29.10;92.30
40848;DHT22;26570;50.962;5.340;2022-08-01T10:56:22;29.10;92.00
40848;DHT22;26570;50.962;5.340;2022-08-01T10:59:07;29.50;92.30
40848;DHT22;26570;50.962;5.340;2022-08-01T11:02:31;29.50;91.60
40848;DHT22;26570;50.962;5.340;2022-08-01T11:05:21;29.80;91.00
40848;DHT22;26570;50.962;5.340;2022-08-01T11:08:20;30.20;90.50
40848;DHT22;26570;50.962;5.340;2022-08-01T11:11:05;30.40;90.30
40848;DHT22;26570;50.962;5.340;2022-08-01T11:20:36;30.00;90.50
40848;DHT22;26570;50.962;5.340;2022-08-01T11:23:21;29.90;88.80
40848;DHT22;26570;50.962;5.340;2022-08-01T11:26:07;29.90;88.40
40848;DHT22;26570;50.962;5.340;2022-08-01T11:29:13;29.90;87.80
40848;DHT22;26570;50.962;5.340;2022-08-01T11:32:26;30.10;88.20
40848;DHT22;26570;50.962;5.340;2022-08-01T11:35:10;29.80;85.90
40848;DHT22;26570;50.962;5.340;2022-08-01T11:37:55;29.80;86.80
40848;DHT22;26570;50.962;5.340;2022-08-01T11:40:40;29.60;88.60
40848;DHT22;26570;50.962;5.340;2022-08-01T11:43:26;29.70;88.60
40848;DHT22;26570;50.962;5.340;2022-08-01T11:46:11;29.70;88.50
40848;DHT22;26570;50.962;5.340;2022-08-01T11:49:22;29.90;85.80
40848;DHT22;26570;50.962;5.340;2022-08-01T11:52:09;30.30;85.50
40848;DHT22;26570;50.962;5.340;2022-08-01T11:55:04;30.60;84.80
40848;DHT22;26570;50.962;5.340;2022-08-01T11:57:49;30.80;83.30
40848;DHT22;26570;50.962;5.340;2022-08-01T12:00:34;30.80;84.20
40848;DHT22;26570;50.962;5.340;2022-08-01T12:03:45;30.90;82.70
40848;DHT22;26570;50.962;5.340;2022-08-01T12:06:30;30.80;83.00
40848;DHT22;26570;50.962;5.340;2022-08-01T12:09:20;30.80;82.50
40848;DHT22;26570;50.962;5.340;2022-08-01T12:12:04;30.50;83.00
40848;DHT22;26570;50.962;5.340;2022-08-01T12:14:54;30.40;82.90
40848;DHT22;26570;50.962;5.340;2022-08-01T12:17:44;30.40;84.40
40848;DHT22;26570;50.962;5.340;2022-08-01T12:20:32;30.00;86.00
40848;DHT22;26570;50.962;5.340;2022-08-01T12:23:17;30.00;85.00
40848;DHT22;26570;50.962;5.340;2022-08-01T12:26:02;29.80;85.80
40848;DHT22;26570;50.962;5.340;2022-08-01T12:28:48;29.80;85.50
40848;DHT22;26570;50.962;5.340;2022-08-01T12:31:36;29.90;85.80
40848;DHT22;26570;50.962;5.340;2022-08-01T12:34:28;29.70;86.20
40848;DHT22;26570;50.962;5.340;2022-08-01T12:37:13;30.10;86.00
40848;DHT22;26570;50.962;5.340;2022-08-01T12:39:59;30.20;84.90
40848;DHT22;26570;50.962;5.340;2022-08-01T12:42:49;30.30;83.60
40848;DHT22;26570;50.962;5.340;2022-08-01T12:45:37;30.20;84.40
40848;DHT22;26570;50.962;5.340;2022-08-01T12:48:30;30.30;84.60
40848;DHT22;26570;50.962;5.340;2022-08-01T12:51:15;30.40;85.30
40848;DHT22;26570;50.962;5.340;2022-08-01T12:54:00;30.50;83.00
40848;DHT22;26570;50.962;5.340;2022-08-01T12:56:45;30.50;81.70
40848;DHT22;26570;50.962;5.340;2022-08-01T12:59:29;30.80;83.20
40848;DHT22;26570;50.962;5.340;2022-08-01T13:02:15;31.00;82.60
40848;DHT22;26570;50.962;5.340;2022-08-01T13:05:00;31.10;80.60
40848;DHT22;26570;50.962;5.340;2022-08-01T13:07:47;31.30;80.80
40848;DHT22;26570;50.962;5.340;2022-08-01T13:10:33;31.10;81.20
40848;DHT22;26570;50.962;5.340;2022-08-01T13:13:18;30.80;82.40
40848;DHT22;26570;50.962;5.340;2022-08-01T13:16:06;30.80;82.30
40848;DHT22;26570;50.962;5.340;2022-08-01T13:18:53;30.30;81.80
40848;DHT22;26570;50.962;5.340;2022-08-01T13:21:53;30.50;82.80
40848;DHT22;26570;50.962;5.340;2022-08-01T13:24:39;30.50;82.50
40848;DHT22;26570;50.962;5.340;2022-08-01T13:27:23;30.40;83.30
40848;DHT22;26570;50.962;5.340;2022-08-01T13:30:20;30.50;83.30
40848;DHT22;26570;50.962;5.340;2022-08-01T13:33:06;30.00;83.20
40848;DHT22;26570;50.962;5.340;2022-08-01T13:35:52;29.90;82.70
40848;DHT22;26570;50.962;5.340;2022-08-01T13:38:38;29.70;83.90
40848;DHT22;26570;50.962;5.340;2022-08-01T13:41:42;29.70;82.90
40848;DHT22;26570;50.962;5.340;2022-08-01T13:44:27;29.80;82.00
40848;DHT22;26570;50.962;5.340;2022-08-01T13:47:13;29.70;82.20
40848;DHT22;26570;50.962;5.340;2022-08-01T13:49:58;29.70;83.50
40848;DHT22;26570;50.962;5.340;2022-08-01T13:52:46;29.50;85.40
40848;DHT22;26570;50.962;5.340;2022-08-01T13:55:31;29.50;85.90
40848;DHT22;26570;50.962;5.340;2022-08-01T13:58:16;29.30;86.60
40848;DHT22;26570;50.962;5.340;2022-08-01T14:01:00;29.40;85.80
40848;DHT22;26570;50.962;5.340;2022-08-01T14:03:46;29.60;85.80
40848;DHT22;26570;50.962;5.340;2022-08-01T14:06:31;29.70;85.00
40848;DHT22;26570;50.962;5.340;2022-08-01T14:09:16;29.90;84.60
40848;DHT22;26570;50.962;5.340;2022-08-01T14:12:03;30.00;84.70
40848;DHT22;26570;50.962;5.340;2022-08-01T14:14:48;29.80;85.60
40848;DHT22;26570;50.962;5.340;2022-08-01T14:17:33;29.70;86.10
40848;DHT22;26570;50.962;5.340;2022-08-01T14:20:18;29.80;86.90
40848;DHT22;26570;50.962;5.340;2022-08-01T14:23:04;29.80;86.60
40848;DHT22;26570;50.962;5.340;2022-08-01T14:25:48;29.70;85.10
40848;DHT22;26570;50.962;5.340;2022-08-01T14:28:33;29.40;86.70
40848;DHT22;26570;50.962;5.340;2022-08-01T14:31:18;29.60;86.60
40848;DHT22;26570;50.962;5.340;2022-08-01T14:34:03;30.10;85.20
40848;DHT22;26570;50.962;5.340;2022-08-01T14:36:47;30.30;84.30
40848;DHT22;26570;50.962;5.340;2022-08-01T14:39:32;30.20;83.30
40848;DHT22;26570;50.962;5.340;2022-08-01T14:42:17;30.30;84.70
40848;DHT22;26570;50.962;5.340;2022-08-01T14:45:03;30.50;83.40
40848;DHT22;26570;50.962;5.340;2022-08-01T14:47:48;30.30;83.80
40848;DHT22;26570;50.962;5.340;2022-08-01T14:50:32;30.40;84.30
40848;DHT22;26570;50.962;5.340;2022-08-01T14:53:17;30.40;84.50
40848;DHT22;26570;50.962;5.340;2022-08-01T14:56:03;30.60;84.30
40848;DHT22;26570;50.962;5.340;2022-08-01T14:58:48;30.80;84.30
40848;DHT22;26570;50.962;5.340;2022-08-01T15:01:33;30.70;84.10
40848;DHT22;26570;50.962;5.340;2022-08-01T15:04:18;30.70;84.60
40848;DHT22;26570;50.962;5.340;2022-08-01T15:07:03;30.50;83.50
40848;DHT22;26570;50.962;5.340;2022-08-01T15:09:47;30.30;84.10
40848;DHT22;26570;50.962;5.340;2022-08-01T15:12:33;30.10;83.40
40848;DHT22;26570;50.962;5.340;2022-08-01T15:15:18;29.80;84.10
40848;DHT22;26570;50.962;5.340;2022-08-01T15:18:04;29.80;85.70
40848;DHT22;26570;50.962;5.340;2022-08-01T15:20:49;29.90;83.10
40848;DHT22;26570;50.962;5.340;2022-08-01T15:23:33;30.40;82.90
40848;DHT22;26570;50.962;5.340;2022-08-01T15:26:18;30.40;81.70
40848;DHT22;26570;50.962;5.340;2022-08-01T15:29:03;30.50;81.40
40848;DHT22;26570;50.962;5.340;2022-08-01T15:31:47;30.80;82.10
40848;DHT22;26570;50.962;5.340;2022-08-01T15:34:36;30.70;81.20
40848;DHT22;26570;50.962;5.340;2022-08-01T15:37:21;31.30;81.00
40848;DHT22;26570;50.962;5.340;2022-08-01T15:40:07;31.60;80.60
40848;DHT22;26570;50.962;5.340;2022-08-01T15:42:53;31.40;80.90
40848;DHT22;26570;50.962;5.340;2022-08-01T15:45:38;31.20;80.60
40848;DHT22;26570;50.962;5.340;2022-08-01T15:48:22;30.90;80.80
40848;DHT22;26570;50.962;5.340;2022-08-01T15:51:07;30.30;82.00
40848;DHT22;26570;50.962;5.340;2022-08-01T15:53:52;29.70;83.20
40848;DHT22;26570;50.962;5.340;2022-08-01T15:56:37;29.60;82.90
40848;DHT22;26570;50.962;5.340;2022-08-01T15:59:22;29.60;83.50
40848;DHT22;26570;50.962;5.340;2022-08-01T16:02:07;29.60;83.40
40848;DHT22;26570;50.962;5.340;2022-08-01T16:04:53;29.40;83.60
40848;DHT22;26570;50.962;5.340;2022-08-01T16:07:37;29.30;84.50
40848;DHT22;26570;50.962;5.340;2022-08-01T16:10:22;28.90;85.00
40848;DHT22;26570;50.962;5.340;2022-08-01T16:13:07;28.80;85.40
40848;DHT22;26570;50.962;5.340;2022-08-01T16:15:52;29.00;85.20
40848;DHT22;26570;50.962;5.340;2022-08-01T16:18:37;29.00;85.10
40848;DHT22;26570;50.962;5.340;2022-08-01T16:21:22;29.20;84.00
40848;DHT22;26570;50.962;5.340;2022-08-01T16:24:08;29.10;84.00
40848;DHT22;26570;50.962;5.340;2022-08-01T16:26:53;29.10;84.80
40848;DHT22;26570;50.962;5.340;2022-08-01T16:29:38;28.70;84.90
40848;DHT22;26570;50.962;5.340;2022-08-01T16:32:22;28.70;85.50
40848;DHT22;26570;50.962;5.340;2022-08-01T16:35:07;28.70;85.50
40848;DHT22;26570;50.962;5.340;2022-08-01T16:37:53;28.60;86.50
40848;DHT22;26570;50.962;5.340;2022-08-01T16:40:38;28.60;85.60
40848;DHT22;26570;50.962;5.340;2022-08-01T16:43:23;28.80;86.50
40848;DHT22;26570;50.962;5.340;2022-08-01T16:46:08;29.00;85.50
40848;DHT22;26570;50.962;5.340;2022-08-01T16:48:54;29.30;85.50
40848;DHT22;26570;50.962;5.340;2022-08-01T16:51:39;29.30;85.20
40848;DHT22;26570;50.962;5.340;2022-08-01T16:54:24;29.00;84.80
40848;DHT22;26570;50.962;5.340;2022-08-01T16:57:08;28.80;85.00
40848;DHT22;26570;50.962;5.340;2022-08-01T16:59:53;28.80;85.40
40848;DHT22;26570;50.962;5.340;2022-08-01T17:02:40;28.70;86.20
40848;DHT22;26570;50.962;5.340;2022-08-01T17:05:25;28.70;85.30
40848;DHT22;26570;50.962;5.340;2022-08-01T17:08:09;28.80;85.40
40848;DHT22;26570;50.962;5.340;2022-08-01T17:10:55;28.90;85.70
40848;DHT22;26570;50.962;5.340;2022-08-01T17:13:40;29.00;84.30
40848;DHT22;26570;50.962;5.340;2022-08-01T17:16:25;28.70;84.70
40848;DHT22;26570;50.962;5.340;2022-08-01T17:19:09;28.80;84.50
40848;DHT22;26570;50.962;5.340;2022-08-01T17:21:54;28.80;84.70
40848;DHT22;26570;50.962;5.340;2022-08-01T17:24:39;29.00;84.40
40848;DHT22;26570;50.962;5.340;2022-08-01T17:27:24;28.90;84.10
40848;DHT22;26570;50.962;5.340;2022-08-01T17:30:09;28.70;85.00
40848;DHT22;26570;50.962;5.340;2022-08-01T17:32:55;28.80;84.50
40848;DHT22;26570;50.962;5.340;2022-08-01T17:35:40;28.40;84.70
40848;DHT22;26570;50.962;5.340;2022-08-01T17:38:24;28.30;85.50
40848;DHT22;26570;50.962;5.340;2022-08-01T17:41:09;28.30;85.10
40848;DHT22;26570;50.962;5.340;2022-08-01T17:43:53;28.10;85.70
40848;DHT22;26570;50.962;5.340;2022-08-01T17:46:38;28.20;86.00
40848;DHT22;26570;50.962;5.340;2022-08-01T17:49:22;28.10;85.60
40848;DHT22;26570;50.962;5.340;2022-08-01T17:52:08;28.00;85.90